MOL Emerald — VRFB8 — position and weather

sailwx.info

Track history (hours):
 
Tides and Currents Weather Stations Pressure Air Temp Water Temp Dewpoint Dewpoint Depression Visibility Wind Speed Wind Dir Waves Ship Positions

MOL Emerald

Last reported at 2017-Dec-14 04:29 UTC. Time now 2017-Dec-17 23:04 UTC.
Position N 01°16' E 104°11'.

Length 294 m; draft 11.2 m.

Type: Ship (hazmat cat A). MMSI: 477207700.

Date/timePositionNaut miles runAvg speedWind from/ knotsBaromVisibWave heightAir tempDewpointWater temp
2017-Dec-14 04:29N 01°16' E 104°11'612.9
2017-Dec-14 04:00N 01°15' E 104°05'713.0
2017-Dec-14 03:30N 01°14' E 103°58'612.2
2017-Dec-14 03:00N 01°14' E 103°53'3 5.6
2017-Dec-14 02:30N 01°16' E 103°51'0 0.3
2017-Dec-14 01:58N 01°16' E 103°51'0 0.0
2017-Dec-14 01:28N 01°16' E 103°51'0 0.0
2017-Dec-14 00:58N 01°16' E 103°51'0 0.0
2017-Dec-14 00:25N 01°16' E 103°51'0 0.0
2017-Dec-13 23:49N 01°16' E 103°51'0 0.0
2017-Dec-13 23:25N 01°16' E 103°51'0 0.0
2017-Dec-13 22:55N 01°16' E 103°51'0 0.0
2017-Dec-13 22:25N 01°16' E 103°51'0 0.0
2017-Dec-13 21:58N 01°16' E 103°51'0 0.0
2017-Dec-13 21:28N 01°16' E 103°51'0 0.0
2017-Dec-13 20:58N 01°16' E 103°51'0 0.0
2017-Dec-13 20:28N 01°16' E 103°51'0 0.0
2017-Dec-13 19:58N 01°16' E 103°51'0 0.0
2017-Dec-13 19:28N 01°16' E 103°51'0 0.0
2017-Dec-13 18:58N 01°16' E 103°51'0 0.0
2017-Dec-13 18:28N 01°16' E 103°51'0 0.0
2017-Dec-13 17:58N 01°16' E 103°51'0 0.0
2017-Dec-13 17:25N 01°16' E 103°51'0 0.0
2017-Dec-13 16:58N 01°16' E 103°51'0 0.0
2017-Dec-13 16:25N 01°16' E 103°51'0 0.1
2017-Dec-13 15:58N 01°16' E 103°51'0 0.1
2017-Dec-13 15:28N 01°16' E 103°51'0 0.0
2017-Dec-13 14:55N 01°16' E 103°51'0 0.0
2017-Dec-13 14:28N 01°16' E 103°51'0 0.0
2017-Dec-13 13:58N 01°16' E 103°51'0 0.0
2017-Dec-13 13:25N 01°16' E 103°51'0 0.0
2017-Dec-13 13:00N 01°16' E 103°51'0 0.5
2017-Dec-13 12:30N 01°16' E 103°51'1 1.7
2017-Dec-13 12:00N 01°15' E 103°51'2 4.9
2017-Dec-13 11:30N 01°14' E 103°53'2 4.3
2017-Dec-13 11:00N 01°12' E 103°52'4 7.6
2017-Dec-13 10:30N 01°10' E 103°49'4 7.9
2017-Dec-13 10:00N 01°08' E 103°46'4 7.8
2017-Dec-13 09:30N 01°05' E 103°43'4 8.9
2017-Dec-13 09:00N 01°03' E 103°39'5 9.0
2017-Dec-13 08:30N 01°04' E 103°35'1 1.2
2017-Dec-13 08:00N 01°05' E 103°34'0 1.0
2017-Dec-13 07:30N 01°05' E 103°34'1 1.3
2017-Dec-13 07:00N 01°05' E 103°33'2 4.8
2017-Dec-13 06:30N 01°07' E 103°31'4 8.1
2017-Dec-13 05:59N 01°09' E 103°28'4 8.0
2017-Dec-13 05:30N 01°11' E 103°25'4 8.0
2017-Dec-13 05:00N 01°14' E 103°21'4 8.1
2017-Dec-13 04:30N 01°17' E 103°19'  
Track history (hours):
 
Tides and Currents Weather Stations Pressure Air Temp Water Temp Dewpoint Dewpoint Depression Visibility Wind Speed Wind Dir Waves Ship Positions

MOL Emerald

Last reported at 2017-Dec-14 04:29 UTC. Time now 2017-Dec-17 23:04 UTC.
Position N 01°16' E 104°11'.

Length 294 m; draft 11.2 m.

Type: Ship (hazmat cat A). MMSI: 477207700.

Date/timePositionNaut miles runAvg speedWind from/ knotsBaromVisibWave heightAir tempDewpointWater temp
2017-Dec-14 04:29N 01°16' E 104°11'612.9
2017-Dec-14 04:00N 01°15' E 104°05'713.0
2017-Dec-14 03:30N 01°14' E 103°58'612.2
2017-Dec-14 03:00N 01°14' E 103°53'3 5.6
2017-Dec-14 02:30N 01°16' E 103°51'0 0.3
2017-Dec-14 01:58N 01°16' E 103°51'0 0.0
2017-Dec-14 01:28N 01°16' E 103°51'0 0.0
2017-Dec-14 00:58N 01°16' E 103°51'0 0.0
2017-Dec-14 00:25N 01°16' E 103°51'0 0.0
2017-Dec-13 23:49N 01°16' E 103°51'0 0.0
2017-Dec-13 23:25N 01°16' E 103°51'0 0.0
2017-Dec-13 22:55N 01°16' E 103°51'0 0.0
2017-Dec-13 22:25N 01°16' E 103°51'0 0.0
2017-Dec-13 21:58N 01°16' E 103°51'0 0.0
2017-Dec-13 21:28N 01°16' E 103°51'0 0.0
2017-Dec-13 20:58N 01°16' E 103°51'0 0.0
2017-Dec-13 20:28N 01°16' E 103°51'0 0.0
2017-Dec-13 19:58N 01°16' E 103°51'0 0.0
2017-Dec-13 19:28N 01°16' E 103°51'0 0.0
2017-Dec-13 18:58N 01°16' E 103°51'0 0.0
2017-Dec-13 18:28N 01°16' E 103°51'0 0.0
2017-Dec-13 17:58N 01°16' E 103°51'0 0.0
2017-Dec-13 17:25N 01°16' E 103°51'0 0.0
2017-Dec-13 16:58N 01°16' E 103°51'0 0.0
2017-Dec-13 16:25N 01°16' E 103°51'0 0.1
2017-Dec-13 15:58N 01°16' E 103°51'0 0.1
2017-Dec-13 15:28N 01°16' E 103°51'0 0.0
2017-Dec-13 14:55N 01°16' E 103°51'0 0.0
2017-Dec-13 14:28N 01°16' E 103°51'0 0.0
2017-Dec-13 13:58N 01°16' E 103°51'0 0.0
2017-Dec-13 13:25N 01°16' E 103°51'0 0.0
2017-Dec-13 13:00N 01°16' E 103°51'0 0.5
2017-Dec-13 12:30N 01°16' E 103°51'1 1.7
2017-Dec-13 12:00N 01°15' E 103°51'2 4.9
2017-Dec-13 11:30N 01°14' E 103°53'2 4.3
2017-Dec-13 11:00N 01°12' E 103°52'4 7.6
2017-Dec-13 10:30N 01°10' E 103°49'4 7.9
2017-Dec-13 10:00N 01°08' E 103°46'4 7.8
2017-Dec-13 09:30N 01°05' E 103°43'4 8.9
2017-Dec-13 09:00N 01°03' E 103°39'5 9.0
2017-Dec-13 08:30N 01°04' E 103°35'1 1.2
2017-Dec-13 08:00N 01°05' E 103°34'0 1.0
2017-Dec-13 07:30N 01°05' E 103°34'1 1.3
2017-Dec-13 07:00N 01°05' E 103°33'2 4.8
2017-Dec-13 06:30N 01°07' E 103°31'4 8.1
2017-Dec-13 05:59N 01°09' E 103°28'4 8.0
2017-Dec-13 05:30N 01°11' E 103°25'4 8.0
2017-Dec-13 05:00N 01°14' E 103°21'4 8.1
2017-Dec-13 04:30N 01°17' E 103°19'  

Dump ship's entire track history